Weather observations for the past three days for
Springfield Robertson County Airport
Metric (Imperial)
Date Time (cdt) Wind (kph) Vis. (km) Weather Sky Cond. Temperature (ºC) Relative Humidity Wind Chill (°C) Heat Index (°C) Pressure Precipitation (cm)
Air Dwpt 6 hour altimeter (cm) sea level (mb) 1 hr 3 hr 6 hr
Max. Min.
04 08:35 SW 20 G 30 16.09 Fair CLR 18 9 56% 76.02 0.0
04 08:15 S 20 G 30 16.09 Fair CLR 17 9 60% 76.02 0.0
04 07:55 S 13 G 24 16.09 Fair CLR 16 8 59% 76 0.0
04 07:35 S 13 16.09 Fair CLR 15 8 63% 76 0.0
04 07:15 Vrbl 11 16.09 Fair CLR 14 7 63% 76.02 0.0
04 06:55 S 11 16.09 Fair CLR 13 7 67% 76.02 0.0
04 06:35 S 11 16.09 Fair CLR 13 7 67% 76 0.0
04 06:15 S 9 16.09 Fair CLR 13 6 63% 75.97 0.0
04 05:55 S 11 16.09 Fair CLR 13 6 63% 75.97 0.0
04 05:35 S 11 16.09 Fair CLR 13 6 63% 75.97 0.0
04 05:15 S 15 16.09 A Few Clouds FEW045 13 6 63% 75.95 0.0
04 04:55 S 17 16.09 A Few Clouds FEW034 FEW042 13 6 63% 75.95 0.0
04 04:35 S 19 16.09 Partly Cloudy FEW032 SCT042 SCT049 13 6 63% 75.95 0.0
04 04:15 S 13 16.09 Partly Cloudy FEW031 SCT037 SCT050 13 6 63% 75.97 0.0
04 03:55 S 15 16.09 Partly Cloudy SCT033 SCT039 SCT050 12 6 67% 75.97 0.0
04 03:35 S 15 16.09 Partly Cloudy FEW033 SCT040 SCT050 13 6 63% 75.97 0.0
04 03:15 S 15 16.09 Partly Cloudy SCT037 SCT048 13 6 63% 75.97 0.0
04 02:55 S 15 16.09 Partly Cloudy FEW038 FEW043 SCT050 12 6 67% 75.97 0.0
04 02:35 S 17 16.09 A Few Clouds FEW038 FEW048 13 6 63% 76 0.0
04 02:15 S 15 16.09 Partly Cloudy FEW032 FEW040 SCT048 13 5 59% 76.02 0.0
04 01:55 S 13 16.09 Partly Cloudy SCT038 SCT047 12 5 63% 76.02 0.0
04 01:35 S 13 16.09 Partly Cloudy FEW037 FEW047 SCT060 12 5 63% 76.02 0.0
04 01:10 S 11 16.09 A Few Clouds FEW039 FEW049 FEW060 12 5 63% 76.05 0.0
04 00:55 S 11 16.09 A Few Clouds FEW039 FEW050 12 5 63% 76.07 0.0
04 00:35 S 9 16.09 A Few Clouds FEW039 12 4 58% 76.07 0.0
04 00:10 S 11 16.09 Partly Cloudy SCT037 SCT043 13 4 55% 76.1 0.0
03 23:50 S 11 16.09 Partly Cloudy SCT034 14 4 51% 76.1 0.0
03 23:30 S 11 16.09 A Few Clouds FEW035 FEW046 13 4 55% 76.12 0.0
03 23:10 S 7 16.09 A Few Clouds FEW036 FEW044 13 5 59% 76.1 0.0
03 22:50 S 6 16.09 Partly Cloudy FEW025 SCT033 SCT041 14 4 51% 76.12 0.0
03 22:35 S 13 16.09 Partly Cloudy FEW032 SCT040 14 4 51% 76.1 0.0
03 22:15 S 19 G 28 16.09 Partly Cloudy FEW025 SCT033 SCT039 14 4 51% 76.07 0.0
03 21:50 S 17 16.09 A Few Clouds FEW025 FEW032 FEW043 14 4 51% 76.07 0.0
03 21:35 S 15 16.09 Partly Cloudy FEW032 SCT040 SCT046 14 4 51% 76.1 0.0
03 21:15 S 13 16.09 A Few Clouds FEW035 FEW041 14 4 51% 76.12 0.0
03 20:55 S 9 16.09 Fair CLR 15 4 48% 76.12 0.0
03 20:35 S 7 16.09 Fair CLR 15 4 48% 76.12 0.0
03 20:15 S 9 16.09 Fair CLR 15 4 48% 76.1 0.0
03 19:55 S 9 16.09 Fair CLR 16 4 45% 76.07 0.0
03 19:35 S 11 16.09 Fair CLR 16 4 45% 76.07 0.0
03 19:15 S 13 16.09 Fair CLR 18 4 40% 76.1 0.0
03 18:55 SW 15 0.00 Fair CLR 18 3 37% 76.1 0.0
03 18:35 SW 19 16.09 Fair CLR 19 3 35% 76.12 0.0
03 18:15 SW 22 16.09 Fair CLR 19 2 32% 76.15 0.0
03 17:55 SW 17 16.09 Fair CLR 19 2 32% 76.17 0.0
03 17:35 SW 15 G 30 16.09 Fair CLR 19 2 32% 76.17 0.0
03 17:15 SW 20 16.09 Fair CLR 20 3 33% 76.2 0.0
03 16:55 SW 19 G 30 16.09 Fair CLR 20 2 30% 76.2 0.0
03 16:35 SW 15 G 30 16.09 Fair CLR 20 2 30% 76.23 0.0
03 16:15 SW 15 G 30 16.09 Fair CLR 20 2 30% 76.28 0.0
03 15:55 SW 24 16.09 Fair CLR 20 2 30% 76.28 0.0
03 15:35 W 17 G 30 16.09 Fair CLR 20 2 30% 76.3 0.0
03 15:15 S 13 G 28 16.09 Fair CLR 19 3 35% 76.33 0.0
03 14:55 S 17 G 28 16.09 Fair CLR 19 2 32% 76.38 0.0
03 14:35 SW 15 G 26 16.09 Fair CLR 19 2 32% 76.4 0.0
03 14:15 Vrbl 11 G 20 16.09 Fair CLR 18 2 34% 76.45 0.0
03 13:55 SW 20 16.09 Fair CLR 18 2 34% 76.45 0.0
03 13:35 SW 20 16.09 Fair CLR 18 2 34% 76.48 0.0
03 13:15 W 15 16.09 Fair CLR 18 3 37% 76.48 0.0
03 12:55 Vrbl 11 16.09 Fair CLR 17 2 37% 76.5 0.0
03 12:35 Vrbl 11 G 20 16.09 Fair CLR 17 1 34% 76.53 0.0
03 12:15 SW 13 16.09 Fair CLR 16 1 36% 76.56 0.0
03 11:55 S 15 16.09 Fair CLR 16 1 36% 76.56 0.0
03 11:35 W 13 16.09 Fair CLR 16 1 36% 76.58 0.0
03 11:15 S 13 16.09 Fair CLR 16 1 36% 76.61 0.0
03 10:55 Vrbl 6 16.09 Fair CLR 15 0 36% 76.61 0.0
03 10:35 Vrbl 7 16.09 Fair CLR 15 0 36% 76.61 0.0
03 10:15 Vrbl 7 16.09 Fair CLR 15 0 36% 76.61 0.0
03 09:55 S 6 16.09 Fair CLR 14 -1 36% 76.63 0.0
03 09:35 SW 11 16.09 Fair CLR 14 1 41% 76.63 0.0
03 09:15 Vrbl 6 16.09 Fair CLR 13 5 59% 76.61 0.0
03 08:55 Calm 16.09 Fair CLR 12 6 67% 76.63 0.0
03 08:35 Calm 16.09 Fair CLR 11 6 72% 76.61 0.0
03 08:15 Calm 16.09 Fair CLR 9 9 100% 76.61 0.0
03 07:55 Calm 11.27 Fair CLR 8 8 100% 76.61 0.0
03 07:35 Calm 4.83 Fog/Mist CLR 7 7 100% 76.61 0.0
03 07:15 Calm 3.22 Fog/Mist CLR 5 5 100% 76.61 0.0
03 06:55 Calm 4.83 Fog/Mist CLR 4 4 100% 76.58 0.0
03 06:35 Calm 3.22 Fog/Mist CLR 3 3 100% 76.56 0.0
03 06:15 Calm 3.22 Fog/Mist CLR 3 3 100% 76.56 0.0
03 05:55 Calm 1.61 Fog/Mist CLR 3 3 100% 76.53 0.0
03 05:35 Calm 3.22 Fog/Mist CLR 3 3 100% 76.5 0.0
03 05:15 Calm 3.22 Fog/Mist FEW055 3 3 100% 76.5 0.0
03 04:35 Calm 2.01 Fog/Mist SCT050 BKN055 3 3 100% 76.5 0.0
03 04:15 Calm 4.83 Fog/Mist SCT050 SCT055 3 3 100% 76.53 0.0
03 03:55 Calm 4.83 Fog/Mist SCT050 SCT055 4 4 100% 76.5 0.0
03 03:35 Calm 4.83 Fog/Mist SCT050 4 4 100% 76.5 0.0
03 03:15 Calm 4.83 Fog/Mist FEW050 FEW055 4 4 100% 76.5 0.0
03 02:55 Calm 4.83 Fog/Mist CLR 4 4 100% 76.5 0.0
03 02:35 Calm 4.83 Fog/Mist CLR 5 4 93% 76.5 0.0
03 02:15 Calm 4.83 Fog/Mist FEW055 5 5 100% 76.5 0.0
03 01:55 Calm 4.02 Fog/Mist FEW055 5 5 100% 76.5 0.0
03 01:35 Calm 4.83 Fog/Mist SCT055 6 6 100% 76.5 0.0
03 01:15 Calm 8.05 Fog/Mist BKN055 6 6 100% 76.5 0.0
03 00:55 Calm 11.27 Mostly Cloudy FEW044 SCT049 BKN055 6 6 100% 76.48 0.0
03 00:35 Calm 9.66 Fog/Mist SCT041 BKN049 BKN060 6 6 100% 76.5 0.0
03 00:15 Calm 11.27 Mostly Cloudy SCT042 SCT049 BKN060 7 6 93% 76.5 0.0
02 23:55 W 6 11.27 Partly Cloudy FEW048 SCT060 6 6 100% 76.5 0.0
02 23:35 Calm 12.87 Mostly Cloudy SCT050 BKN060 6 6 100% 76.48 0.0
02 23:15 Calm 12.87 Mostly Cloudy FEW048 BKN055 BKN070 6 6 100% 76.45 0.0
02 22:55 Calm 12.87 Partly Cloudy SCT049 SCT055 SCT065 6 6 100% 76.45 0.0
02 22:35 Calm 14.48 Partly Cloudy FEW046 SCT055 SCT070 6 6 100% 76.45 0.0
02 22:15 Calm 16.09 A Few Clouds FEW049 FEW055 7 7 100% 76.45 0.0
02 21:55 Calm 16.09 Partly Cloudy FEW050 SCT055 7 7 100% 76.43 0.0
02 21:35 Calm 16.09 Partly Cloudy FEW050 SCT055 8 7 93% 76.43 0.0
02 21:15 Calm 16.09 Fair CLR 9 8 94% 76.43 0.0
02 20:55 Calm 16.09 Fair CLR 9 8 94% 76.4 0.0
02 20:35 N 6 16.09 Partly Cloudy FEW039 FEW047 SCT060 9 8 94% 76.4 0.0
02 20:10 NW 6 16.09 Fair CLR 9 8 94% 76.38 0.0
02 19:55 Calm 16.09 Fair CLR 10 8 88% 76.38 0.0
02 19:35 NW 7 16.09 Fair CLR 10 7 82% 9 76.38 0.0
02 19:15 N 9 16.09 Fair CLR 11 7 77% 76.35 0.0
02 18:55 N 13 16.09 Fair CLR 11 7 77% 76.33 0.0
02 18:35 N 17 0.00 Fair CLR 12 7 72% 76.33 0.0
02 18:15 N 19 16.09 Fair CLR 12 7 72% 76.3 0.0
02 17:55 N 20 16.09 A Few Clouds FEW095 FEW110 12 8 77% 76.3 0.0
02 17:35 NE 22 G 37 16.09 Mostly Cloudy BKN100 12 8 77% 76.28 0.0
02 17:15 N 22 G 37 16.09 Overcast SCT080 OVC095 12 8 77% 76.28 0.0
02 16:55 N 35 G 48 16.09 Mostly Cloudy and Breezy FEW065 BKN080 BKN100 12 8 77% 76.25 0.0
02 16:35 NW 20 G 33 16.09 Mostly Cloudy SCT060 BKN070 BKN080 15 5 51% 76.2 0.0
02 16:15 N 15 16.09 Overcast BKN060 BKN070 OVC090 15 5 51% 76.2 0.0
02 15:55 W 17 G 30 16.09 Overcast BKN060 OVC075 16 3 42% 76.15 0.0
02 15:35 W 19 16.09 Mostly Cloudy SCT065 BKN075 BKN090 17 2 37% 76.15 0.0
02 15:15 W 13 G 28 16.09 Mostly Cloudy SCT070 BKN085 BKN110 17 2 37% 76.15 0.0
02 14:55 W 15 16.09 Partly Cloudy FEW065 SCT085 SCT110 19 3 35% 76.15 0.0
02 14:15 W 19 16.09 Partly Cloudy FEW075 SCT090 17 2 37% 76.2 0.0
02 13:55 Vrbl 11 G 22 16.09 Partly Cloudy FEW065 FEW075 SCT095 17 2 37% 76.2 0.0
02 13:35 Calm 16.09 Mostly Cloudy BKN065 BKN075 BKN095 17 2 37% 76.23 0.0
02 13:15 Calm 16.09 Overcast BKN065 OVC075 16 1 36% 76.23 0.0
02 12:55 N 15 16.09 Mostly Cloudy SCT065 BKN075 BKN095 16 2 39% 76.25 0.0
02 12:35 Vrbl 9 G 20 16.09 Partly Cloudy SCT065 SCT075 SCT090 17 3 39% 76.25 0.0
02 12:15 NW 9 G 20 16.09 Mostly Cloudy BKN060 BKN075 16 2 39% 76.28 0.0
02 11:55 Vrbl 7 16.09 Mostly Cloudy BKN060 16 1 36% 76.3 0.0
02 11:35 Vrbl 9 16.09 A Few Clouds FEW060 16 2 39% 76.3 0.0
02 11:15 Vrbl 7 16.09 Fair CLR 16 2 39% 76.3 0.0
02 10:55 Vrbl 7 16.09 Fair CLR 15 2 42% 76.3 0.0
02 10:35 Vrbl 6 16.09 Fair CLR 15 3 45% 76.33 0.0
02 10:15 N 9 16.09 Fair CLR 15 3 45% 76.33 0.0
02 09:55 Vrbl 7 16.09 Fair CLR 14 3 48% 76.33 0.0
02 09:35 Calm 16.09 Fair CLR 14 4 51% 76.3 0.0
02 09:15 Vrbl 11 16.09 Fair CLR 13 4 55% 76.28 0.0
02 08:55 Vrbl 9 16.09 Fair CLR 13 5 59% 76.3 0.0
02 08:35 Vrbl 7 16.09 Fair CLR 12 6 67% 76.3 0.0
02 08:15 E 6 16.09 Mostly Cloudy BKN085 11 6 72% 76.3 0.0
02 07:55 Calm 16.09 Mostly Cloudy BKN085 10 6 76% 76.28 0.0
02 07:35 Calm 16.09 A Few Clouds FEW085 10 6 76% 76.28 0.0
02 07:15 Calm 16.09 Fair CLR 8 7 93% 76.28 0.0
02 06:55 Calm 16.09 Fair CLR 6 6 100% 76.28 0.0
02 06:35 Calm 16.09 Fair CLR 5 5 100% 76.25 0.0
02 06:15 Calm 16.09 Fair CLR 5 5 100% 76.23 0.0
02 05:55 Calm 16.09 Fair CLR 5 5 100% 76.23 0.0
02 05:35 Calm 16.09 Partly Cloudy FEW060 SCT065 5 5 100% 76.2 0.0
02 05:15 Calm 16.09 Partly Cloudy SCT060 SCT070 5 5 100% 76.2 0.0
02 04:55 Calm 16.09 A Few Clouds FEW060 FEW070 6 5 93% 76.23 0.0
02 04:35 Calm 16.09 Fair CLR 6 6 100% 76.23 0.0
02 04:15 Calm 16.09 A Few Clouds FEW047 7 5 87% 76.23 0.0
02 03:55 Calm 16.09 A Few Clouds FEW045 6 6 100% 76.2 0.0
02 03:35 Calm 16.09 Fair CLR 7 6 93% 76.2 0.0
02 03:15 Calm 16.09 A Few Clouds FEW045 7 6 93% 76.2 0.0
02 02:55 Calm 16.09 A Few Clouds FEW037 FEW044 FEW050 7 6 93% 76.25 0.0
02 02:35 Calm 16.09 Partly Cloudy FEW033 FEW038 SCT044 8 5 82% 76.23 0.0
02 02:15 Calm 16.09 A Few Clouds FEW037 8 4 76% 76.23 0.0
02 01:55 Calm 16.09 Fair CLR 9 3 66% 76.25 0.0
02 01:35 N 6 16.09 Partly Cloudy FEW039 SCT047 9 3 66% 76.25 0.0
02 01:15 N 7 16.09 A Few Clouds FEW044 9 3 66% 8 76.28 0.0
02 00:55 N 6 16.09 A Few Clouds FEW039 FEW047 9 3 66% 76.28 0.0
02 00:35 N 7 16.09 Partly Cloudy FEW040 SCT048 9 3 66% 8 76.25 0.0
02 00:15 N 11 16.09 Partly Cloudy FEW039 FEW046 SCT050 9 3 66% 8 76.23 0.0
01 23:55 N 7 16.09 Partly Cloudy FEW039 FEW045 SCT050 9 3 66% 8 76.23 0.0
01 23:35 N 7 16.09 A Few Clouds FEW034 FEW046 FEW050 9 3 66% 8 76.25 0.0
01 23:15 N 7 16.09 Partly Cloudy FEW044 SCT050 10 3 62% 9 76.28 0.0
01 22:55 Calm 16.09 Mostly Cloudy FEW035 SCT044 BKN055 10 3 62% 76.28 0.0
01 22:35 Calm 16.09 Overcast OVC055 10 3 62% 76.3 0.0
01 22:15 N 7 16.09 Mostly Cloudy FEW043 SCT050 BKN055 11 3 58% 76.33 0.0
01 21:55 Calm 16.09 Mostly Cloudy SCT044 BKN050 11 3 58% 76.33 0.0
01 21:35 N 7 16.09 Overcast FEW041 BKN050 OVC055 11 3 58% 76.3 0.0
01 21:15 N 6 16.09 Overcast FEW036 BKN048 OVC055 12 3 54% 76.3 0.0
01 20:55 N 6 16.09 Mostly Cloudy FEW038 BKN047 BKN055 12 3 54% 76.28 0.0
01 20:35 N 9 16.09 Mostly Cloudy FEW042 SCT048 BKN055 12 3 54% 76.25 0.0
01 20:15 N 7 16.09 Partly Cloudy SCT050 SCT060 13 2 47% 76.25 0.0
01 19:55 N 9 16.09 Fair CLR 13 2 47% 76.2 0.0
01 19:35 N 7 16.09 Fair CLR 14 2 44% 76.2 0.0
01 19:15 N 11 16.09 Fair CLR 14 1 41% 76.15 0.0
01 18:55 N 17 16.09 Fair CLR 15 1 39% 76.12 0.0
01 18:35 N 15 G 24 16.09 Fair CLR 15 0 36% 76.1 0.0
01 18:15 N 19 16.09 Fair CLR 15 -1 34% 76.1 0.0
01 17:55 N 15 16.09 Fair CLR 16 -1 31% 76.07 0.0
01 17:35 N 19 16.09 Fair CLR 16 -2 29% 76.07 0.0
01 17:15 N 17 G 31 16.09 Fair CLR 16 -2 29% 76.05 0.0
01 16:55 N 15 G 31 16.09 Fair CLR 17 -2 27% 76.07 0.0
01 16:35 N 15 G 28 16.09 Fair CLR 17 -1 30% 76.07 0.0
01 16:15 NW 19 G 28 16.09 Fair CLR 17 -2 27% 76.07 0.0
01 15:55 NW 15 G 28 16.09 Fair CLR 17 -2 27% 76.1 0.0
01 15:35 NW 13 G 26 16.09 Fair CLR 18 -1 28% 76.12 0.0
01 15:15 N 20 16.09 Fair CLR 17 -2 27% 76.15 0.0
01 14:55 NW 20 16.09 Fair CLR 17 -1 30% 76.17 0.0
01 14:35 N 15 16.09 Fair CLR 17 0 32% 76.17 0.0
01 14:15 NW 15 G 26 16.09 A Few Clouds FEW065 17 2 37% 76.17 0.0
01 13:55 N 13 G 26 16.09 A Few Clouds FEW065 17 3 39% 76.17 0.0
01 13:35 N 17 G 28 16.09 A Few Clouds FEW055 17 4 42% 76.2 0.0
01 13:15 N 20 G 30 16.09 A Few Clouds FEW055 17 5 45% 76.17 0.0
01 12:55 N 15 G 30 16.09 Fair CLR 17 5 45% 76.17 0.0
01 12:35 W 20 G 35 16.09 Fair CLR 17 5 45% 76.2 0.0
01 12:15 N 19 G 37 16.09 Fair CLR 16 4 45% 76.2 0.0
01 11:55 N 13 G 30 16.09 Fair CLR 17 5 45% 76.2 0.0
01 11:35 N 15 G 24 16.09 Fair CLR 17 6 49% 76.2 0.0
01 11:15 N 17 G 28 16.09 Fair CLR 16 5 48% 76.23 0.0
01 10:55 NW 17 G 28 16.09 A Few Clouds FEW035 16 6 52% 76.23 0.0
01 10:35 NW 17 16.09 A Few Clouds FEW035 16 7 55% 76.23 0.0
01 10:15 NW 15 G 26 16.09 A Few Clouds FEW028 16 8 59% 76.2 0.0
01 09:55 NW 19 G 28 16.09 Partly Cloudy SCT027 15 9 68% 76.2 0.0
01 09:35 N 15 G 28 16.09 Fair CLR 15 9 68% 76.17 0.0
01 09:15 NW 15 16.09 Fair CLR 15 7 59% 76.17 0.0
01 08:55 W 11 G 20 16.09 Fair CLR 14 8 67% 76.17 0.0
Date Time (cdt) Wind (kph) Vis. (km) Weather Sky Cond. Air Dwpt Max. Min. Relative Humidity Wind Chill (°C) Heat Index (°C) altimeter (cm) sea level (mb) 1 hr 3 hr 6 hr
6 hour
Temperature (ºC) Pressure Precipitation (cm)